N931CD KJWN-KM02
Flight info
| Callsign | N931CD |
|---|---|
| Flight time | N/A |
| Altitude | 4500 |
| Route | QUZMU |
| Aircraft | BE58/L-G/C |
Departure
| Time | 2026-04-26 20:57 |
|---|---|
| Airport | John C Tune Airport (KJWN) |
Arrival
| Time | N/A |
|---|---|
| Airport | KM02 |
| Time | Latitude | Longitude | Altitude | Speed | Heading |
|---|---|---|---|---|---|
| 2026-04-26 20:40 | 36.17783 | -86.88319 | 478 ft | 0 kts | 98° |
| 2026-04-26 20:53 | 36.17784 | -86.88312 | 475 ft | 6 kts | 70° |
| 2026-04-26 20:53 | 36.17853 | -86.88339 | 475 ft | 17 kts | 321° |
| 2026-04-26 20:53 | 36.17960 | -86.88465 | 473 ft | 24 kts | 317° |
| 2026-04-26 20:54 | 36.18008 | -86.88604 | 473 ft | 12 kts | 236° |
| 2026-04-26 20:54 | 36.17932 | -86.88633 | 473 ft | 15 kts | 192° |
| 2026-04-26 20:54 | 36.17796 | -86.88676 | 472 ft | 25 kts | 195° |
| 2026-04-26 20:54 | 36.17610 | -86.88735 | 466 ft | 28 kts | 194° |
| 2026-04-26 20:55 | 36.17492 | -86.88785 | 464 ft | 7 kts | 244° |
| 2026-04-26 20:55 | 36.17493 | -86.88813 | 463 ft | 0 kts | 283° |
| 2026-04-26 20:55 | 36.17495 | -86.88823 | 463 ft | 9 kts | 284° |
| 2026-04-26 20:55 | 36.17528 | -86.88902 | 462 ft | 5 kts | 7° |
| 2026-04-26 20:56 | 36.17707 | -86.88845 | 469 ft | 60 kts | 14° |
| 2026-04-26 20:56 | 36.18338 | -86.88640 | 533 ft | 117 kts | 15° |
| 2026-04-26 20:56 | 36.19185 | -86.88367 | 800 ft | 134 kts | 14° |
| 2026-04-26 20:56 | 36.20172 | -86.88107 | 1053 ft | 154 kts | 12° |
| 2026-04-26 20:57 | 36.21274 | -86.87889 | 1286 ft | 166 kts | 359° |
| 2026-04-26 20:57 | 36.22314 | -86.88488 | 1534 ft | 172 kts | 312° |
| 2026-04-26 20:57 | 36.22720 | -86.89853 | 1778 ft | 173 kts | 274° |
| 2026-04-26 20:57 | 36.22752 | -86.91328 | 2025 ft | 171 kts | 271° |
| 2026-04-26 20:58 | 36.22782 | -86.92802 | 2283 ft | 170 kts | 272° |
| 2026-04-26 20:58 | 36.22807 | -86.94226 | 2531 ft | 167 kts | 270° |
| 2026-04-26 20:58 | 36.22829 | -86.95685 | 2792 ft | 167 kts | 272° |
| 2026-04-26 20:58 | 36.22847 | -86.97099 | 3023 ft | 166 kts | 270° |
| 2026-04-26 20:59 | 36.22860 | -86.98520 | 3263 ft | 165 kts | 271° |
| 2026-04-26 20:59 | 36.22883 | -86.99947 | 3531 ft | 167 kts | 271° |
| 2026-04-26 20:59 | 36.22907 | -87.01386 | 3774 ft | 169 kts | 271° |
| 2026-04-26 20:59 | 36.22928 | -87.02838 | 4013 ft | 168 kts | 270° |
| 2026-04-26 21:00 | 36.22953 | -87.04267 | 4260 ft | 166 kts | 271° |
| 2026-04-26 21:00 | 36.22966 | -87.05689 | 4478 ft | 167 kts | 270° |
| 2026-04-26 21:00 | 36.22988 | -87.07167 | 4492 ft | 175 kts | 271° |
| 2026-04-26 21:00 | 36.23010 | -87.08695 | 4500 ft | 179 kts | 271° |
| 2026-04-26 21:01 | 36.23031 | -87.10244 | 4508 ft | 181 kts | 271° |
| 2026-04-26 21:01 | 36.23210 | -87.11782 | 4510 ft | 181 kts | 285° |
| 2026-04-26 21:01 | 36.23573 | -87.13277 | 4512 ft | 182 kts | 288° |
| 2026-04-26 21:01 | 36.23955 | -87.14770 | 4514 ft | 182 kts | 287° |
| 2026-04-26 21:02 | 36.24328 | -87.16265 | 4513 ft | 182 kts | 287° |
| 2026-04-26 21:02 | 36.24698 | -87.17764 | 4514 ft | 182 kts | 287° |
| 2026-04-26 21:02 | 36.25073 | -87.19267 | 4516 ft | 184 kts | 287° |
| 2026-04-26 21:02 | 36.25445 | -87.20781 | 4510 ft | 183 kts | 287° |
| 2026-04-26 21:03 | 36.25819 | -87.22289 | 4510 ft | 183 kts | 287° |
| 2026-04-26 21:03 | 36.26191 | -87.23793 | 4506 ft | 182 kts | 287° |
| 2026-04-26 21:03 | 36.26561 | -87.25287 | 4512 ft | 181 kts | 287° |
| 2026-04-26 21:03 | 36.26931 | -87.26786 | 4505 ft | 181 kts | 287° |
| 2026-04-26 21:04 | 36.27299 | -87.28278 | 4512 ft | 181 kts | 287° |
| 2026-04-26 21:04 | 36.27675 | -87.29774 | 4511 ft | 182 kts | 287° |
| 2026-04-26 21:04 | 36.28033 | -87.31276 | 4519 ft | 181 kts | 287° |
| 2026-04-26 21:04 | 36.28403 | -87.32769 | 4510 ft | 182 kts | 287° |
| 2026-04-26 21:05 | 36.28780 | -87.34306 | 4306 ft | 190 kts | 287° |
| 2026-04-26 21:05 | 36.29173 | -87.35888 | 4123 ft | 194 kts | 287° |
| 2026-04-26 21:05 | 36.29562 | -87.37490 | 3935 ft | 194 kts | 287° |
| 2026-04-26 21:05 | 36.29953 | -87.39071 | 3738 ft | 190 kts | 287° |
| 2026-04-26 21:06 | 36.30320 | -87.40610 | 3545 ft | 188 kts | 282° |
| 2026-04-26 21:06 | 36.30242 | -87.42201 | 3351 ft | 186 kts | 254° |
| 2026-04-26 21:06 | 36.29692 | -87.43638 | 3159 ft | 186 kts | 232° |
| 2026-04-26 21:06 | 36.28747 | -87.44713 | 2968 ft | 185 kts | 210° |
| 2026-04-26 21:07 | 36.27570 | -87.45283 | 2770 ft | 181 kts | 188° |
| 2026-04-26 21:07 | 36.26327 | -87.45284 | 2575 ft | 178 kts | 171° |
| 2026-04-26 21:07 | 36.25099 | -87.45056 | 2396 ft | 179 kts | 171° |
| 2026-04-26 21:07 | 36.23859 | -87.44861 | 2191 ft | 179 kts | 170° |
| 2026-04-26 21:08 | 36.22622 | -87.44652 | 2000 ft | 179 kts | 171° |
| 2026-04-26 21:08 | 36.21388 | -87.44438 | 1827 ft | 180 kts | 170° |
| 2026-04-26 21:08 | 36.20167 | -87.44229 | 1799 ft | 174 kts | 171° |
| 2026-04-26 21:08 | 36.18987 | -87.44034 | 1807 ft | 169 kts | 171° |
| 2026-04-26 21:09 | 36.17829 | -87.43837 | 1805 ft | 166 kts | 170° |
| 2026-04-26 21:09 | 36.16664 | -87.43633 | 1484 ft | 173 kts | 170° |
| 2026-04-26 21:09 | 36.15543 | -87.43436 | 1253 ft | 150 kts | 172° |
| 2026-04-26 21:09 | 36.14542 | -87.43269 | 1099 ft | 140 kts | 173° |
| 2026-04-26 21:10 | 36.13624 | -87.43120 | 946 ft | 127 kts | 172° |
| 2026-04-26 21:10 | 36.12871 | -87.42998 | 888 ft | 75 kts | 172° |
| 2026-04-26 21:10 | 36.12628 | -87.42948 | 878 ft | 12 kts | 186° |
| 2026-04-26 21:10 | 36.12570 | -87.42950 | 877 ft | 3 kts | 106° |
| 2026-04-26 21:11 | 36.12605 | -87.42948 | 879 ft | 12 kts | 342° |
| 2026-04-26 21:11 | 36.12721 | -87.43013 | 885 ft | 19 kts | 313° |
| 2026-04-26 21:11 | 36.12793 | -87.43088 | 883 ft | 0 kts | 352° |
| 2026-04-26 21:15 | 36.12810 | -87.43091 | 883 ft | 10 kts | 354° |
| 2026-04-26 21:16 | 36.12946 | -87.43113 | 886 ft | 29 kts | 350° |
| 2026-04-26 21:16 | 36.13176 | -87.43152 | 889 ft | 37 kts | 352° |
| 2026-04-26 21:16 | 36.13390 | -87.43187 | 896 ft | 22 kts | 352° |
| 2026-04-26 21:16 | 36.13466 | -87.43166 | 897 ft | 10 kts | 74° |
| 2026-04-26 21:17 | 36.13450 | -87.43093 | 895 ft | 9 kts | 176° |
| 2026-04-26 21:17 | 36.13255 | -87.43062 | 896 ft | 58 kts | 172° |
| 2026-04-26 21:17 | 36.12619 | -87.42954 | 936 ft | 116 kts | 172° |
| 2026-04-26 21:17 | 36.11760 | -87.42813 | 1194 ft | 132 kts | 171° |
| 2026-04-26 21:18 | 36.10774 | -87.42647 | 1370 ft | 150 kts | 174° |
| 2026-04-26 21:18 | 36.09782 | -87.43000 | 1610 ft | 158 kts | 220° |
| 2026-04-26 21:18 | 36.09330 | -87.44236 | 1853 ft | 162 kts | 271° |
| 2026-04-26 21:18 | 36.09483 | -87.45140 | 2023 ft | 163 kts | 288° |
| 2026-04-26 21:19 | 36.09960 | -87.46916 | 2362 ft | 166 kts | 288° |
| 2026-04-26 21:19 | 36.10314 | -87.48297 | 2488 ft | 174 kts | 284° |
| 2026-04-26 21:19 | 36.10423 | -87.49811 | 2496 ft | 180 kts | 266° |
| 2026-04-26 21:19 | 36.10149 | -87.51320 | 2521 ft | 182 kts | 247° |
| 2026-04-26 21:20 | 36.09594 | -87.52740 | 2523 ft | 184 kts | 241° |
| 2026-04-26 21:20 | 36.09186 | -87.53691 | 2502 ft | 185 kts | 242° |
| 2026-04-26 21:20 | 36.08617 | -87.55112 | 2492 ft | 187 kts | 250° |
| 2026-04-26 21:20 | 36.08614 | -87.56674 | 2498 ft | 184 kts | 289° |
| 2026-04-26 21:21 | 36.09033 | -87.58170 | 2487 ft | 186 kts | 288° |
| 2026-04-26 21:21 | 36.09345 | -87.59726 | 2493 ft | 187 kts | 282° |
| 2026-04-26 21:21 | 36.09601 | -87.61279 | 2496 ft | 182 kts | 281° |
| 2026-04-26 21:21 | 36.09851 | -87.62812 | 2501 ft | 182 kts | 283° |
| 2026-04-26 21:22 | 36.10102 | -87.64360 | 2491 ft | 184 kts | 281° |
| 2026-04-26 21:22 | 36.10356 | -87.65897 | 2490 ft | 182 kts | 282° |
| 2026-04-26 21:22 | 36.10611 | -87.67433 | 2492 ft | 182 kts | 282° |
| 2026-04-26 21:23 | 36.11113 | -87.70494 | 2495 ft | 182 kts | 281° |
| 2026-04-26 21:23 | 36.11085 | -87.72028 | 2491 ft | 181 kts | 247° |
| 2026-04-26 21:23 | 36.10266 | -87.73143 | 2489 ft | 177 kts | 206° |
| 2026-04-26 21:23 | 36.09134 | -87.73749 | 2495 ft | 178 kts | 201° |
| 2026-04-26 21:24 | 36.07993 | -87.74350 | 2508 ft | 178 kts | 201° |
| 2026-04-26 21:24 | 36.06846 | -87.74932 | 2509 ft | 178 kts | 201° |
| 2026-04-26 21:24 | 36.05707 | -87.75559 | 2513 ft | 184 kts | 207° |
| 2026-04-26 21:24 | 36.04627 | -87.76376 | 2482 ft | 177 kts | 210° |
| 2026-04-26 21:25 | 36.03610 | -87.77164 | 2491 ft | 173 kts | 210° |
| 2026-04-26 21:25 | 36.02564 | -87.77964 | 2485 ft | 176 kts | 211° |
| 2026-04-26 21:25 | 36.01539 | -87.78765 | 2482 ft | 173 kts | 211° |
| 2026-04-26 21:25 | 36.00535 | -87.79567 | 2480 ft | 171 kts | 217° |
| 2026-04-26 21:26 | 35.99989 | -87.80790 | 2486 ft | 162 kts | 266° |
| 2026-04-26 21:26 | 36.00348 | -87.82012 | 2489 ft | 151 kts | 319° |
| 2026-04-26 21:26 | 36.01261 | -87.82511 | 2500 ft | 139 kts | 350° |
| 2026-04-26 21:26 | 36.02196 | -87.82551 | 2496 ft | 132 kts | 13° |
| 2026-04-26 21:27 | 36.03021 | -87.82112 | 2508 ft | 129 kts | 37° |
| 2026-04-26 21:27 | 36.03590 | -87.81278 | 2513 ft | 127 kts | 68° |
| 2026-04-26 21:27 | 36.03786 | -87.80197 | 2501 ft | 130 kts | 76° |
| 2026-04-26 21:27 | 36.04267 | -87.79266 | 2508 ft | 131 kts | 44° |
| 2026-04-26 21:28 | 36.05046 | -87.78634 | 2480 ft | 140 kts | 32° |
| 2026-04-26 21:28 | 36.05910 | -87.77967 | 2321 ft | 148 kts | 33° |
| 2026-04-26 21:28 | 36.06782 | -87.77346 | 2127 ft | 137 kts | 33° |
| 2026-04-26 21:28 | 36.07581 | -87.76765 | 1892 ft | 131 kts | 33° |
| 2026-04-26 21:29 | 36.08357 | -87.76202 | 1646 ft | 122 kts | 32° |
| 2026-04-26 21:29 | 36.08987 | -87.75751 | 1368 ft | 95 kts | 32° |
| 2026-04-26 21:29 | 36.09568 | -87.75339 | 1153 ft | 97 kts | 30° |
| 2026-04-26 21:29 | 36.10155 | -87.74922 | 1032 ft | 98 kts | 32° |
| 2026-04-26 21:30 | 36.10740 | -87.74486 | 903 ft | 97 kts | 31° |
| 2026-04-26 21:30 | 36.11299 | -87.74081 | 767 ft | 86 kts | 30° |
| 2026-04-26 21:30 | 36.11757 | -87.73747 | 750 ft | 79 kts | 30° |
| 2026-04-26 21:30 | 36.12250 | -87.73392 | 875 ft | 83 kts | 30° |
| 2026-04-26 21:31 | 36.12828 | -87.72989 | 1011 ft | 110 kts | 29° |
| 2026-04-26 21:31 | 36.13542 | -87.72529 | 1370 ft | 119 kts | 31° |
| 2026-04-26 21:31 | 36.14279 | -87.71956 | 1621 ft | 132 kts | 35° |
| 2026-04-26 21:31 | 36.15173 | -87.71479 | 1877 ft | 154 kts | 4° |
| 2026-04-26 21:32 | 36.16167 | -87.71981 | 2142 ft | 163 kts | 313° |
| 2026-04-26 21:32 | 36.16526 | -87.73288 | 2412 ft | 166 kts | 263° |
| 2026-04-26 21:32 | 36.16001 | -87.74516 | 2671 ft | 164 kts | 215° |
| 2026-04-26 21:32 | 36.14959 | -87.74976 | 2926 ft | 158 kts | 180° |
| 2026-04-26 21:33 | 36.13882 | -87.74777 | 3182 ft | 157 kts | 164° |
| 2026-04-26 21:33 | 36.12831 | -87.74402 | 3429 ft | 158 kts | 159° |
| 2026-04-26 21:33 | 36.11782 | -87.73990 | 3681 ft | 159 kts | 171° |
| 2026-04-26 21:33 | 36.10709 | -87.74381 | 3923 ft | 170 kts | 218° |
| 2026-04-26 21:34 | 36.10180 | -87.75646 | 4174 ft | 170 kts | 263° |
| 2026-04-26 21:34 | 36.10069 | -87.77090 | 4430 ft | 168 kts | 257° |
| 2026-04-26 21:34 | 36.09626 | -87.78412 | 4683 ft | 166 kts | 239° |
| 2026-04-26 21:34 | 36.09062 | -87.79656 | 4927 ft | 166 kts | 239° |
| 2026-04-26 21:35 | 36.08508 | -87.80922 | 5181 ft | 170 kts | 240° |
| 2026-04-26 21:35 | 36.07940 | -87.82193 | 5421 ft | 167 kts | 239° |
| 2026-04-26 21:35 | 36.07377 | -87.83438 | 5666 ft | 165 kts | 239° |
| 2026-04-26 21:35 | 36.06829 | -87.84675 | 5915 ft | 164 kts | 239° |
| 2026-04-26 21:36 | 36.06276 | -87.85921 | 6167 ft | 168 kts | 239° |
| 2026-04-26 21:36 | 36.05710 | -87.87195 | 6417 ft | 170 kts | 239° |
| 2026-04-26 21:36 | 36.05126 | -87.88504 | 6497 ft | 179 kts | 239° |
| 2026-04-26 21:36 | 36.04514 | -87.89886 | 6506 ft | 186 kts | 240° |
| 2026-04-26 21:37 | 36.03882 | -87.91299 | 6507 ft | 189 kts | 239° |
| 2026-04-26 21:37 | 36.03244 | -87.92727 | 6514 ft | 191 kts | 239° |
| 2026-04-26 21:37 | 36.02599 | -87.94177 | 6499 ft | 192 kts | 239° |
| 2026-04-26 21:37 | 36.01953 | -87.95623 | 6499 ft | 192 kts | 240° |
| 2026-04-26 21:38 | 36.01308 | -87.97066 | 6499 ft | 192 kts | 239° |
| 2026-04-26 21:38 | 36.00664 | -87.98510 | 6499 ft | 191 kts | 240° |
| 2026-04-26 21:38 | 36.00020 | -87.99948 | 6499 ft | 191 kts | 240° |
| 2026-04-26 21:38 | 35.99378 | -88.01387 | 6495 ft | 192 kts | 239° |
| 2026-04-26 21:39 | 35.98742 | -88.02812 | 6425 ft | 196 kts | 239° |
| 2026-04-26 21:39 | 35.98068 | -88.04315 | 6185 ft | 203 kts | 240° |
| 2026-04-26 21:39 | 35.97381 | -88.05851 | 5936 ft | 205 kts | 239° |
| 2026-04-26 21:39 | 35.96691 | -88.07395 | 5692 ft | 206 kts | 239° |
| 2026-04-26 21:40 | 35.95996 | -88.08943 | 5444 ft | 206 kts | 239° |
| 2026-04-26 21:40 | 35.95299 | -88.10499 | 5202 ft | 208 kts | 239° |
| 2026-04-26 21:40 | 35.94602 | -88.12057 | 4961 ft | 208 kts | 239° |
| 2026-04-26 21:40 | 35.93924 | -88.13629 | 4719 ft | 207 kts | 240° |
| 2026-04-26 21:41 | 35.93254 | -88.15203 | 4522 ft | 206 kts | 240° |
| 2026-04-26 21:41 | 35.92586 | -88.16757 | 4487 ft | 202 kts | 240° |
| 2026-04-26 21:41 | 35.91938 | -88.18264 | 4490 ft | 196 kts | 240° |
| 2026-04-26 21:41 | 35.91301 | -88.19737 | 4489 ft | 194 kts | 240° |
| 2026-04-26 21:42 | 35.90667 | -88.21201 | 4498 ft | 193 kts | 240° |
| 2026-04-26 21:42 | 35.90036 | -88.22665 | 4494 ft | 194 kts | 240° |
| 2026-04-26 21:42 | 35.89404 | -88.24133 | 4494 ft | 194 kts | 239° |
| 2026-04-26 21:42 | 35.88770 | -88.25596 | 4492 ft | 193 kts | 240° |
| 2026-04-26 21:43 | 35.88141 | -88.27056 | 4492 ft | 193 kts | 240° |
| 2026-04-26 21:43 | 35.87508 | -88.28517 | 4494 ft | 193 kts | 240° |
| 2026-04-26 21:43 | 35.86881 | -88.29976 | 4490 ft | 193 kts | 240° |
| 2026-04-26 21:43 | 35.86245 | -88.31433 | 4499 ft | 193 kts | 240° |
| 2026-04-26 21:44 | 35.85602 | -88.32913 | 4482 ft | 197 kts | 240° |
| 2026-04-26 21:44 | 35.84967 | -88.34399 | 4486 ft | 195 kts | 240° |
| 2026-04-26 21:44 | 35.84323 | -88.35871 | 4490 ft | 195 kts | 240° |
| 2026-04-26 21:44 | 35.83689 | -88.37336 | 4489 ft | 193 kts | 240° |
| 2026-04-26 21:45 | 35.83059 | -88.38790 | 4486 ft | 192 kts | 240° |
| 2026-04-26 21:45 | 35.82438 | -88.40223 | 4501 ft | 193 kts | 239° |
| 2026-04-26 21:45 | 35.81790 | -88.41711 | 4488 ft | 195 kts | 240° |
| 2026-04-26 21:45 | 35.81157 | -88.43176 | 4492 ft | 193 kts | 240° |
| 2026-04-26 21:46 | 35.80532 | -88.44617 | 4500 ft | 192 kts | 240° |
| 2026-04-26 21:46 | 35.79897 | -88.46070 | 4495 ft | 194 kts | 240° |
| 2026-04-26 21:46 | 35.79262 | -88.47526 | 4495 ft | 192 kts | 240° |
| 2026-04-26 21:46 | 35.78634 | -88.48981 | 4489 ft | 192 kts | 239° |
| 2026-04-26 21:47 | 35.78004 | -88.50429 | 4492 ft | 192 kts | 240° |
| 2026-04-26 21:47 | 35.77374 | -88.51876 | 4493 ft | 192 kts | 240° |
| 2026-04-26 21:47 | 35.76734 | -88.53335 | 4490 ft | 195 kts | 239° |
| 2026-04-26 21:47 | 35.76098 | -88.54800 | 4501 ft | 193 kts | 240° |
| 2026-04-26 21:48 | 35.75466 | -88.56264 | 4486 ft | 193 kts | 239° |
| 2026-04-26 21:48 | 35.74824 | -88.57729 | 4490 ft | 191 kts | 240° |
| 2026-04-26 21:48 | 35.74202 | -88.59152 | 4500 ft | 192 kts | 239° |
| 2026-04-26 21:48 | 35.73564 | -88.60603 | 4489 ft | 193 kts | 240° |
| 2026-04-26 21:49 | 35.72932 | -88.62057 | 4487 ft | 192 kts | 240° |
| 2026-04-26 21:49 | 35.72302 | -88.63500 | 4502 ft | 192 kts | 239° |
| 2026-04-26 21:49 | 35.71662 | -88.64955 | 4504 ft | 195 kts | 239° |
| 2026-04-26 21:49 | 35.71027 | -88.66424 | 4504 ft | 194 kts | 239° |
| 2026-04-26 21:50 | 35.70388 | -88.67887 | 4503 ft | 195 kts | 238° |
| 2026-04-26 21:50 | 35.69951 | -88.68854 | 4500 ft | 195 kts | 237° |
| 2026-04-26 21:50 | 35.69100 | -88.70812 | 4490 ft | 192 kts | 242° |
| 2026-04-26 21:50 | 35.68487 | -88.72263 | 4498 ft | 191 kts | 240° |
| 2026-04-26 21:51 | 35.67851 | -88.73698 | 4498 ft | 191 kts | 239° |
| 2026-04-26 21:51 | 35.67209 | -88.75130 | 4507 ft | 192 kts | 240° |
| 2026-04-26 21:51 | 35.66573 | -88.76580 | 4505 ft | 192 kts | 240° |
| 2026-04-26 21:51 | 35.65942 | -88.78034 | 4515 ft | 194 kts | 239° |
| 2026-04-26 21:52 | 35.65301 | -88.79491 | 4512 ft | 193 kts | 240° |
| 2026-04-26 21:52 | 35.64663 | -88.80942 | 4450 ft | 194 kts | 239° |
| 2026-04-26 21:52 | 35.64010 | -88.82410 | 4330 ft | 196 kts | 239° |
| 2026-04-26 21:52 | 35.63351 | -88.83900 | 4200 ft | 200 kts | 240° |
| 2026-04-26 21:53 | 35.62700 | -88.85409 | 4091 ft | 201 kts | 239° |
| 2026-04-26 21:53 | 35.62040 | -88.86915 | 3971 ft | 200 kts | 239° |
| 2026-04-26 21:53 | 35.61327 | -88.88368 | 3841 ft | 195 kts | 225° |
| 2026-04-26 21:53 | 35.60237 | -88.89233 | 3657 ft | 183 kts | 201° |
| 2026-04-26 21:54 | 35.59070 | -88.89831 | 3477 ft | 183 kts | 201° |
| 2026-04-26 21:54 | 35.57895 | -88.90433 | 3268 ft | 183 kts | 200° |
| 2026-04-26 21:54 | 35.56716 | -88.91019 | 3078 ft | 182 kts | 200° |
| 2026-04-26 21:54 | 35.55552 | -88.91606 | 2891 ft | 180 kts | 200° |
| 2026-04-26 21:55 | 35.54397 | -88.92189 | 2695 ft | 180 kts | 200° |
| 2026-04-26 21:55 | 35.53232 | -88.92762 | 2501 ft | 181 kts | 199° |
| 2026-04-26 21:55 | 35.52070 | -88.93339 | 2313 ft | 178 kts | 200° |
| 2026-04-26 21:55 | 35.50926 | -88.93900 | 2111 ft | 179 kts | 200° |
| 2026-04-26 21:56 | 35.49817 | -88.94489 | 2096 ft | 169 kts | 202° |
| 2026-04-26 21:56 | 35.48790 | -88.95148 | 2081 ft | 163 kts | 221° |
| 2026-04-26 21:56 | 35.48366 | -88.96347 | 2090 ft | 155 kts | 270° |
| 2026-04-26 21:56 | 35.48814 | -88.97471 | 2081 ft | 141 kts | 323° |
| 2026-04-26 21:57 | 35.49681 | -88.97630 | 2093 ft | 130 kts | 26° |
| 2026-04-26 21:57 | 35.50343 | -88.96881 | 2098 ft | 132 kts | 53° |
| 2026-04-26 21:57 | 35.50994 | -88.96084 | 2116 ft | 137 kts | 32° |
| 2026-04-26 21:57 | 35.51903 | -88.95600 | 1994 ft | 144 kts | 26° |
| 2026-04-26 21:58 | 35.52790 | -88.95116 | 1810 ft | 125 kts | 25° |
| 2026-04-26 21:58 | 35.53536 | -88.94728 | 1650 ft | 110 kts | 26° |
| 2026-04-26 21:58 | 35.54225 | -88.94383 | 1514 ft | 108 kts | 26° |
| 2026-04-26 21:58 | 35.54917 | -88.94037 | 1371 ft | 107 kts | 27° |
| 2026-04-26 21:59 | 35.55588 | -88.93702 | 1224 ft | 102 kts | 25° |
| 2026-04-26 21:59 | 35.56227 | -88.93382 | 1098 ft | 98 kts | 25° |
| 2026-04-26 21:59 | 35.56858 | -88.93066 | 951 ft | 95 kts | 26° |
| 2026-04-26 21:59 | 35.57485 | -88.92751 | 819 ft | 99 kts | 26° |
| 2026-04-26 22:00 | 35.58127 | -88.92432 | 681 ft | 103 kts | 22° |
| 2026-04-26 22:00 | 35.58803 | -88.92105 | 531 ft | 105 kts | 23° |
| 2026-04-26 22:00 | 35.59439 | -88.91776 | 432 ft | 90 kts | 22° |
| 2026-04-26 22:00 | 35.60009 | -88.91491 | 421 ft | 96 kts | 21° |
| 2026-04-26 22:01 | 35.60640 | -88.91174 | 505 ft | 97 kts | 23° |
| 2026-04-26 22:01 | 35.61340 | -88.90829 | 663 ft | 120 kts | 22° |
| 2026-04-26 22:01 | 35.62141 | -88.90405 | 929 ft | 131 kts | 27° |
| 2026-04-26 22:01 | 35.62999 | -88.89956 | 1179 ft | 139 kts | 37° |
| 2026-04-26 22:02 | 35.63466 | -88.88935 | 1454 ft | 145 kts | 94° |
| 2026-04-26 22:02 | 35.63293 | -88.88140 | 1637 ft | 148 kts | 118° |
| 2026-04-26 22:02 | 35.62631 | -88.86610 | 1988 ft | 154 kts | 120° |
| 2026-04-26 22:02 | 35.62119 | -88.85438 | 2243 ft | 156 kts | 121° |
| 2026-04-26 22:03 | 35.61693 | -88.84211 | 2508 ft | 161 kts | 103° |
| 2026-04-26 22:03 | 35.61751 | -88.82809 | 2748 ft | 167 kts | 80° |
| 2026-04-26 22:03 | 35.62018 | -88.81431 | 3008 ft | 164 kts | 78° |
| 2026-04-26 22:03 | 35.62298 | -88.80081 | 3255 ft | 162 kts | 79° |
| 2026-04-26 22:04 | 35.62557 | -88.78756 | 3480 ft | 158 kts | 79° |
| 2026-04-26 22:04 | 35.62816 | -88.77437 | 3728 ft | 158 kts | 79° |
| 2026-04-26 22:04 | 35.63081 | -88.76129 | 3958 ft | 156 kts | 78° |
| 2026-04-26 22:04 | 35.63342 | -88.74835 | 4200 ft | 158 kts | 78° |
| 2026-04-26 22:05 | 35.63612 | -88.73502 | 4453 ft | 163 kts | 78° |
| 2026-04-26 22:05 | 35.63882 | -88.72145 | 4714 ft | 164 kts | 79° |
| 2026-04-26 22:05 | 35.64137 | -88.70838 | 4941 ft | 165 kts | 79° |
| 2026-04-26 22:05 | 35.64413 | -88.69476 | 5187 ft | 164 kts | 78° |
| 2026-04-26 22:06 | 35.64686 | -88.68119 | 5436 ft | 163 kts | 78° |
| 2026-04-26 22:06 | 35.64962 | -88.66710 | 5479 ft | 174 kts | 78° |
| 2026-04-26 22:06 | 35.65256 | -88.65240 | 5487 ft | 179 kts | 78° |
| 2026-04-26 22:06 | 35.65555 | -88.63745 | 5496 ft | 181 kts | 77° |
| 2026-04-26 22:07 | 35.65756 | -88.62745 | 5491 ft | 182 kts | 79° |
| 2026-04-26 22:07 | 35.66051 | -88.61230 | 5484 ft | 183 kts | 78° |
| 2026-04-26 22:07 | 35.66936 | -88.56783 | 5485 ft | 182 kts | 77° |